createdAt,value
2022-09-03T00:03:05.494Z,95399.69
2022-09-03T00:08:09.824Z,95400.50
2022-09-03T00:13:13.816Z,95402.50
2022-09-03T00:18:16.546Z,95393.41
2022-09-03T00:23:19.328Z,95405.19
2022-09-03T00:28:24.305Z,95401.81
2022-09-03T00:33:27.909Z,95398.31
2022-09-03T00:38:30.658Z,95392.00
2022-09-03T00:43:34.980Z,95388.38
2022-09-03T00:48:37.830Z,95382.44
2022-09-03T00:53:42.362Z,95386.16
2022-09-03T00:58:45.351Z,95383.22
2022-09-03T01:03:51.200Z,95393.22
2022-09-03T01:09:01.398Z,95402.03
2022-09-03T01:14:06.647Z,95399.66
2022-09-03T01:19:09.934Z,95394.16
2022-09-03T01:24:13.279Z,95385.84
2022-09-03T01:29:16.361Z,95392.56
2022-09-03T01:34:19.490Z,95389.78
2022-09-03T01:39:22.606Z,95394.97
2022-09-03T01:44:25.353Z,95395.38
2022-09-03T01:49:29.186Z,95393.75
2022-09-03T01:54:33.250Z,95393.31
2022-09-03T01:59:36.977Z,95386.28
2022-09-03T02:04:39.681Z,95384.16
2022-09-03T02:09:42.574Z,95382.72
2022-09-03T02:14:45.305Z,95379.13
2022-09-03T02:19:48.002Z,95374.72
2022-09-03T02:24:50.697Z,95373.97
2022-09-03T02:29:53.550Z,95392.03
2022-09-03T02:34:56.456Z,95387.88
2022-09-03T02:39:59.254Z,95392.84
2022-09-03T02:45:02.181Z,95389.19
2022-09-03T02:50:04.988Z,95394.09
2022-09-03T02:55:07.723Z,95398.91
2022-09-03T03:00:10.518Z,95387.03
2022-09-03T03:05:13.557Z,95382.31
2022-09-03T03:10:16.428Z,95387.09
2022-09-03T03:15:19.486Z,95383.91
2022-09-03T03:20:22.181Z,95385.81
2022-09-03T03:25:24.910Z,95387.09
2022-09-03T03:30:27.711Z,95384.56
2022-09-03T03:35:30.470Z,95385.19
2022-09-03T03:40:33.955Z,95396.66
2022-09-03T03:45:36.791Z,95398.34
2022-09-03T03:50:39.595Z,95409.97
2022-09-03T03:55:42.422Z,95402.91
2022-09-03T04:00:45.221Z,95394.06
2022-09-03T04:05:48.655Z,95386.69
2022-09-03T04:10:51.591Z,95387.00
2022-09-03T04:15:54.358Z,95387.00
2022-09-03T04:20:57.159Z,95384.75
2022-09-03T04:26:00.021Z,95394.34
2022-09-03T04:31:03.147Z,95397.44
2022-09-03T04:36:08.296Z,95394.78
2022-09-03T04:41:11.310Z,95405.50
2022-09-03T04:46:16.282Z,95404.09
2022-09-03T04:51:20.977Z,95410.28
2022-09-03T04:56:23.784Z,95410.81
2022-09-03T05:01:26.553Z,95412.66
2022-09-03T05:06:29.974Z,95427.50
2022-09-03T05:11:32.762Z,95420.50
2022-09-03T05:16:35.664Z,95427.56
2022-09-03T05:21:38.479Z,95424.50
2022-09-03T05:26:41.955Z,95433.88
2022-09-03T05:31:44.722Z,95453.41
2022-09-03T05:36:50.076Z,95465.22
2022-09-03T05:41:53.252Z,95463.34
2022-09-03T05:46:56.798Z,95451.16
2022-09-03T05:51:59.572Z,95468.78
2022-09-03T05:57:02.353Z,95461.34
2022-09-03T06:02:05.606Z,95462.56
2022-09-03T06:07:08.884Z,95467.78
2022-09-03T06:12:11.612Z,95474.84
2022-09-03T06:17:15.162Z,95460.13
2022-09-03T06:22:18.249Z,95455.66
2022-09-03T06:27:21.307Z,95463.63
2022-09-03T06:32:24.682Z,95468.19
2022-09-03T06:37:27.825Z,95467.19
2022-09-03T06:42:31.476Z,95476.13
2022-09-03T06:47:34.174Z,95475.59
2022-09-03T06:52:36.912Z,95489.16
2022-09-03T06:57:40.028Z,95504.50
2022-09-03T07:02:44.956Z,95504.97
2022-09-03T07:07:48.001Z,95497.41
2022-09-03T07:12:50.873Z,95499.22
2022-09-03T07:17:53.766Z,95494.44
2022-09-03T07:22:56.773Z,95507.50
2022-09-03T07:28:00.148Z,95502.06
2022-09-03T07:33:04.592Z,95513.88
2022-09-03T07:38:08.112Z,95513.16
2022-09-03T07:43:11.051Z,95507.81
2022-09-03T07:48:13.907Z,95504.03
2022-09-03T07:53:17.090Z,95500.81
2022-09-03T07:58:24.022Z,95508.19
2022-09-03T08:03:27.020Z,95506.97
2022-09-03T08:08:33.669Z,95509.38
2022-09-03T08:13:38.635Z,95510.44
2022-09-03T08:18:41.396Z,95503.38
2022-09-03T08:23:44.319Z,95512.69
2022-09-03T08:28:47.280Z,95511.31
2022-09-03T08:33:50.979Z,95520.09
2022-09-03T08:38:55.315Z,95519.84
2022-09-03T08:43:58.219Z,95519.84
2022-09-03T08:49:05.986Z,95523.03
2022-09-03T08:54:08.932Z,95512.25
2022-09-03T08:59:11.804Z,95501.44
2022-09-03T09:04:19.197Z,95503.78
2022-09-03T09:09:22.045Z,95490.19
2022-09-03T09:14:24.915Z,95485.63
2022-09-03T09:19:27.881Z,95493.19
2022-09-03T09:24:37.156Z,95483.22
2022-09-03T09:29:39.909Z,95484.00
2022-09-03T09:34:42.752Z,95473.00
2022-09-03T09:39:45.787Z,95473.09
2022-09-03T09:44:49.008Z,95476.69
2022-09-03T09:49:51.878Z,95467.22
2022-09-03T09:54:55.282Z,95469.19
2022-09-03T09:59:58.182Z,95480.31
2022-09-03T10:05:01.122Z,95461.25
2022-09-03T10:10:04.302Z,95472.09
2022-09-03T10:15:07.426Z,95464.41
2022-09-03T10:20:31.140Z,95467.38
2022-09-03T10:25:34.037Z,95467.47
2022-09-03T10:30:40.105Z,95460.53
2022-09-03T10:35:43.408Z,95460.28
2022-09-03T10:40:46.229Z,95468.72
2022-09-03T10:45:49.877Z,95461.91
2022-09-03T10:50:52.762Z,95439.34
2022-09-03T10:55:56.026Z,95438.28
2022-09-03T11:00:59.079Z,95439.84
2022-09-03T11:06:02.022Z,95442.00
2022-09-03T11:11:04.771Z,95442.56
2022-09-03T11:16:07.727Z,95428.84
2022-09-03T11:21:12.366Z,95432.31
2022-09-03T11:26:15.518Z,95411.28
2022-09-03T11:31:18.762Z,95409.75
2022-09-03T11:36:21.680Z,95421.31
2022-09-03T11:41:26.106Z,95415.78
2022-09-03T11:46:29.108Z,95416.38
2022-09-03T11:51:32.404Z,95417.91
2022-09-03T11:56:35.299Z,95407.56
2022-09-03T12:01:38.466Z,95408.88
2022-09-03T12:06:41.581Z,95391.16
2022-09-03T12:11:44.460Z,95393.91
2022-09-03T12:16:48.698Z,95394.47
2022-09-03T12:21:52.758Z,95392.91
2022-09-03T12:26:56.291Z,95395.25
2022-09-03T12:31:59.283Z,95389.50
2022-09-03T12:37:02.175Z,95381.81
2022-09-03T12:42:04.941Z,95376.94
2022-09-03T12:52:30.513Z,95372.47
2022-09-03T12:57:34.028Z,95362.50
2022-09-03T13:02:36.881Z,95364.22
2022-09-03T13:07:44.712Z,95350.84
2022-09-03T13:12:53.162Z,95354.88
2022-09-03T13:17:56.318Z,95357.00
2022-09-03T13:22:59.425Z,95359.75
2022-09-03T13:28:02.703Z,95367.88
2022-09-03T13:33:06.040Z,95375.97
2022-09-03T13:38:09.029Z,95382.22
2022-09-03T13:43:17.024Z,95375.94
2022-09-03T13:48:39.174Z,95366.84
2022-09-03T13:53:43.083Z,95374.41
2022-09-03T13:58:46.079Z,95380.13
2022-09-03T14:03:49.365Z,95372.53
2022-09-03T14:08:58.606Z,95392.09
2022-09-03T14:14:01.809Z,95400.69
2022-09-03T14:19:06.618Z,95391.69
2022-09-03T14:24:09.450Z,95395.75
2022-09-03T14:29:12.333Z,95443.50
2022-09-03T14:34:15.141Z,95483.53
2022-09-03T14:39:18.231Z,95513.19
2022-09-03T14:44:21.130Z,95546.69
2022-09-03T14:49:23.941Z,95555.28
2022-09-03T14:54:28.001Z,95559.09
2022-09-03T14:59:30.733Z,95576.47
2022-09-03T15:04:33.576Z,95578.97
2022-09-03T15:09:37.329Z,95621.44
2022-09-03T15:14:40.163Z,95597.84
2022-09-03T15:19:44.768Z,95557.03
2022-09-03T15:24:47.758Z,95549.41
2022-09-03T15:29:51.697Z,95547.22
2022-09-03T15:34:54.627Z,95569.03
2022-09-03T15:39:57.936Z,95580.34
2022-09-03T15:45:01.504Z,95586.22
2022-09-03T15:50:06.330Z,95589.47
2022-09-03T15:55:09.775Z,95584.69
2022-09-03T16:00:12.598Z,95583.31
2022-09-03T16:05:16.448Z,95571.75
2022-09-03T16:10:26.625Z,95568.06
2022-09-03T16:15:30.305Z,95558.56
2022-09-03T16:20:34.366Z,95549.59
2022-09-03T16:25:38.671Z,95543.19
2022-09-03T16:30:47.985Z,95532.75
2022-09-03T16:35:50.822Z,95535.06
2022-09-03T16:40:57.092Z,95535.75
2022-09-03T16:46:00.985Z,95540.19
2022-09-03T16:51:06.138Z,95537.44
2022-09-03T16:56:14.006Z,95527.97
2022-09-03T17:01:16.972Z,95532.69
2022-09-03T17:06:20.093Z,95522.16
2022-09-03T17:11:22.933Z,95539.00
2022-09-03T17:16:26.044Z,95536.75
2022-09-03T17:21:28.784Z,95538.00
2022-09-03T17:26:32.558Z,95543.66
2022-09-03T17:31:36.791Z,95543.66
2022-09-03T17:36:39.669Z,95542.41
2022-09-03T17:41:42.377Z,95545.78
2022-09-03T17:46:45.274Z,95540.88
2022-09-03T17:51:48.082Z,95543.44
2022-09-03T17:56:50.839Z,95556.94
2022-09-03T18:01:53.988Z,95557.50
2022-09-03T18:06:57.351Z,95564.03
2022-09-03T18:12:00.177Z,95571.78
2022-09-03T18:17:03.181Z,95577.44
2022-09-03T18:22:23.285Z,95583.00
2022-09-03T18:27:43.574Z,95586.38
2022-09-03T18:33:04.109Z,95596.00
2022-09-03T18:38:27.530Z,95595.50
2022-09-03T18:43:49.237Z,95597.59
2022-09-03T18:49:09.583Z,95604.13
2022-09-03T18:54:44.990Z,95607.44
2022-09-03T19:00:10.574Z,95596.50
2022-09-03T19:05:30.886Z,95608.41
2022-09-03T19:10:51.546Z,95616.44
2022-09-03T19:16:12.336Z,95612.00
2022-09-03T19:21:33.358Z,95612.41
2022-09-03T19:26:53.764Z,95618.22
2022-09-03T19:32:13.999Z,95625.44
2022-09-03T19:37:34.348Z,95625.22
2022-09-03T19:42:54.759Z,95639.41
2022-09-03T19:48:15.314Z,95650.44
2022-09-03T19:53:35.860Z,95646.69
2022-09-03T19:58:56.415Z,95663.59
2022-09-03T20:04:16.993Z,95670.19
2022-09-03T20:09:37.385Z,95667.28
2022-09-03T20:14:40.963Z,95671.94
2022-09-03T20:19:45.907Z,95674.13
2022-09-03T20:24:49.558Z,95682.16
2022-09-03T20:29:52.419Z,95687.75
2022-09-03T20:34:55.275Z,95691.94
2022-09-03T20:39:58.622Z,95687.41
2022-09-03T20:45:08.218Z,95700.72
2022-09-03T20:50:13.129Z,95691.50
2022-09-03T20:55:15.906Z,95695.25
2022-09-03T21:00:18.986Z,95692.00
2022-09-03T21:05:22.059Z,95698.56
2022-09-03T21:10:24.901Z,95691.00
2022-09-03T21:15:27.703Z,95702.44
2022-09-03T21:20:30.570Z,95700.84
2022-09-03T21:25:33.401Z,95706.09
2022-09-03T21:30:38.158Z,95704.09
2022-09-03T21:35:42.985Z,95708.38
2022-09-03T21:40:46.908Z,95708.66
2022-09-03T21:45:50.246Z,95711.28
2022-09-03T21:50:53.157Z,95721.56
2022-09-03T21:55:56.454Z,95719.53
2022-09-03T22:00:59.369Z,95718.81
2022-09-03T22:06:02.238Z,95715.50
2022-09-03T22:11:05.380Z,95712.94
2022-09-03T22:16:13.574Z,95710.50
2022-09-03T22:21:16.619Z,95714.97
2022-09-03T22:26:21.409Z,95708.91
2022-09-03T22:31:24.345Z,95720.78
2022-09-03T22:36:27.357Z,95717.06
2022-09-03T22:41:31.011Z,95720.34
2022-09-03T22:46:33.839Z,95718.69
2022-09-03T22:51:36.572Z,95716.59
2022-09-03T22:56:39.452Z,95715.28
2022-09-03T23:01:42.472Z,95722.44
2022-09-03T23:06:51.009Z,95726.50
2022-09-03T23:11:53.697Z,95724.38
2022-09-03T23:16:56.616Z,95722.19
2022-09-03T23:22:00.376Z,95721.69
2022-09-03T23:27:03.109Z,95716.56
2022-09-03T23:32:06.218Z,95720.34
2022-09-03T23:37:33.190Z,95721.03
2022-09-03T23:42:37.931Z,95729.19
2022-09-03T23:47:40.701Z,95727.13
2022-09-03T23:52:43.421Z,95735.03
2022-09-03T23:57:46.772Z,95739.41
